sensor_id;sensor_type;location;lat;lon;timestamp;P1;durP1;ratioP1;P2;durP2;ratioP2
64060;SDS011;60147;55.036;73.242;2023-02-28T00:01:11;11.00;;;5.30;;
64060;SDS011;60147;55.036;73.242;2023-02-28T00:03:37;11.80;;;6.13;;
64060;SDS011;60147;55.036;73.242;2023-02-28T00:06:07;9.05;;;5.57;;
64060;SDS011;60147;55.036;73.242;2023-02-28T00:08:38;11.60;;;5.72;;
64060;SDS011;60147;55.036;73.242;2023-02-28T00:11:11;10.38;;;5.57;;
64060;SDS011;60147;55.036;73.242;2023-02-28T00:13:38;12.40;;;5.30;;
64060;SDS011;60147;55.036;73.242;2023-02-28T00:16:13;12.05;;;5.95;;
64060;SDS011;60147;55.036;73.242;2023-02-28T00:18:45;12.27;;;5.55;;
64060;SDS011;60147;55.036;73.242;2023-02-28T00:21:13;10.90;;;4.38;;
64060;SDS011;60147;55.036;73.242;2023-02-28T00:23:39;10.25;;;5.00;;
64060;SDS011;60147;55.036;73.242;2023-02-28T00:26:05;10.35;;;4.97;;
64060;SDS011;60147;55.036;73.242;2023-02-28T00:28:31;7.45;;;4.10;;
64060;SDS011;60147;55.036;73.242;2023-02-28T00:31:08;13.07;;;3.63;;
64060;SDS011;60147;55.036;73.242;2023-02-28T00:33:34;11.20;;;5.47;;
64060;SDS011;60147;55.036;73.242;2023-02-28T00:36:01;10.90;;;5.82;;
64060;SDS011;60147;55.036;73.242;2023-02-28T00:38:28;14.07;;;6.00;;
64060;SDS011;60147;55.036;73.242;2023-02-28T00:41:04;13.35;;;5.55;;
64060;SDS011;60147;55.036;73.242;2023-02-28T00:43:31;10.27;;;5.72;;
64060;SDS011;60147;55.036;73.242;2023-02-28T00:45:57;10.65;;;5.53;;
64060;SDS011;60147;55.036;73.242;2023-02-28T00:48:23;12.60;;;6.38;;
64060;SDS011;60147;55.036;73.242;2023-02-28T00:50:49;16.95;;;6.57;;
64060;SDS011;60147;55.036;73.242;2023-02-28T00:53:15;14.82;;;5.65;;
64060;SDS011;60147;55.036;73.242;2023-02-28T00:55:41;11.98;;;6.13;;
64060;SDS011;60147;55.036;73.242;2023-02-28T00:58:07;17.63;;;5.60;;
64060;SDS011;60147;55.036;73.242;2023-02-28T01:00:33;14.90;;;6.82;;
64060;SDS011;60147;55.036;73.242;2023-02-28T01:03:00;15.25;;;6.80;;
64060;SDS011;60147;55.036;73.242;2023-02-28T01:05:26;11.43;;;5.60;;
64060;SDS011;60147;55.036;73.242;2023-02-28T01:07:52;15.18;;;7.35;;
64060;SDS011;60147;55.036;73.242;2023-02-28T01:10:28;14.25;;;5.90;;
64060;SDS011;60147;55.036;73.242;2023-02-28T01:13:07;16.52;;;6.10;;
64060;SDS011;60147;55.036;73.242;2023-02-28T01:15:36;12.98;;;6.20;;
64060;SDS011;60147;55.036;73.242;2023-02-28T01:18:08;9.13;;;4.28;;
64060;SDS011;60147;55.036;73.242;2023-02-28T01:20:35;9.70;;;5.82;;
64060;SDS011;60147;55.036;73.242;2023-02-28T01:23:02;11.25;;;6.18;;
64060;SDS011;60147;55.036;73.242;2023-02-28T01:25:28;10.50;;;4.95;;
64060;SDS011;60147;55.036;73.242;2023-02-28T01:28:04;11.18;;;5.38;;
64060;SDS011;60147;55.036;73.242;2023-02-28T01:30:31;7.45;;;3.78;;
64060;SDS011;60147;55.036;73.242;2023-02-28T01:32:58;9.75;;;5.55;;
64060;SDS011;60147;55.036;73.242;2023-02-28T01:35:25;13.93;;;5.40;;
64060;SDS011;60147;55.036;73.242;2023-02-28T01:37:56;10.15;;;5.05;;
64060;SDS011;60147;55.036;73.242;2023-02-28T01:40:22;11.95;;;6.30;;
64060;SDS011;60147;55.036;73.242;2023-02-28T01:42:48;13.75;;;5.30;;
64060;SDS011;60147;55.036;73.242;2023-02-28T01:45:23;15.35;;;7.35;;
64060;SDS011;60147;55.036;73.242;2023-02-28T01:47:51;15.85;;;7.22;;
64060;SDS011;60147;55.036;73.242;2023-02-28T01:50:19;12.93;;;7.10;;
64060;SDS011;60147;55.036;73.242;2023-02-28T01:52:51;12.27;;;6.95;;
64060;SDS011;60147;55.036;73.242;2023-02-28T01:55:22;14.07;;;5.93;;
64060;SDS011;60147;55.036;73.242;2023-02-28T01:57:56;15.68;;;6.82;;
64060;SDS011;60147;55.036;73.242;2023-02-28T02:00:34;11.70;;;5.82;;
64060;SDS011;60147;55.036;73.242;2023-02-28T02:03:02;5.82;;;3.45;;
64060;SDS011;60147;55.036;73.242;2023-02-28T02:05:30;9.02;;;5.15;;
64060;SDS011;60147;55.036;73.242;2023-02-28T02:08:10;12.52;;;6.10;;
64060;SDS011;60147;55.036;73.242;2023-02-28T02:18:53;2.60;;;1.27;;
64060;SDS011;60147;55.036;73.242;2023-02-28T02:29:47;8.13;;;4.03;;
64060;SDS011;60147;55.036;73.242;2023-02-28T02:37:32;8.45;;;4.93;;
64060;SDS011;60147;55.036;73.242;2023-02-28T02:42:45;10.35;;;4.28;;
64060;SDS011;60147;55.036;73.242;2023-02-28T02:47:39;8.73;;;3.45;;
64060;SDS011;60147;55.036;73.242;2023-02-28T02:50:07;9.77;;;4.75;;
64060;SDS011;60147;55.036;73.242;2023-02-28T02:52:48;15.57;;;6.38;;
64060;SDS011;60147;55.036;73.242;2023-02-28T02:55:15;14.20;;;6.95;;
64060;SDS011;60147;55.036;73.242;2023-02-28T02:57:49;15.73;;;7.80;;
64060;SDS011;60147;55.036;73.242;2023-02-28T03:00:16;15.88;;;8.60;;
64060;SDS011;60147;55.036;73.242;2023-02-28T03:02:53;16.10;;;7.80;;
64060;SDS011;60147;55.036;73.242;2023-02-28T03:05:27;16.20;;;7.93;;
64060;SDS011;60147;55.036;73.242;2023-02-28T03:07:54;19.88;;;8.98;;
64060;SDS011;60147;55.036;73.242;2023-02-28T03:10:31;14.18;;;7.25;;
64060;SDS011;60147;55.036;73.242;2023-02-28T03:13:05;13.77;;;7.97;;
64060;SDS011;60147;55.036;73.242;2023-02-28T03:15:36;9.43;;;4.97;;
64060;SDS011;60147;55.036;73.242;2023-02-28T03:18:22;14.25;;;6.78;;
64060;SDS011;60147;55.036;73.242;2023-02-28T03:23:43;16.20;;;7.25;;
64060;SDS011;60147;55.036;73.242;2023-02-28T03:26:25;10.98;;;5.22;;
64060;SDS011;60147;55.036;73.242;2023-02-28T03:29:00;9.80;;;5.32;;
64060;SDS011;60147;55.036;73.242;2023-02-28T03:31:29;10.52;;;4.95;;
64060;SDS011;60147;55.036;73.242;2023-02-28T03:34:01;11.55;;;5.75;;
64060;SDS011;60147;55.036;73.242;2023-02-28T03:36:41;9.48;;;5.45;;
64060;SDS011;60147;55.036;73.242;2023-02-28T03:39:31;9.43;;;5.80;;
64060;SDS011;60147;55.036;73.242;2023-02-28T03:42:18;16.08;;;5.32;;
64060;SDS011;60147;55.036;73.242;2023-02-28T03:44:45;9.18;;;5.22;;
64060;SDS011;60147;55.036;73.242;2023-02-28T03:49:56;14.48;;;5.80;;
64060;SDS011;60147;55.036;73.242;2023-02-28T03:52:25;11.20;;;4.97;;
64060;SDS011;60147;55.036;73.242;2023-02-28T03:54:54;13.40;;;5.80;;
64060;SDS011;60147;55.036;73.242;2023-02-28T03:59:56;15.77;;;6.38;;
64060;SDS011;60147;55.036;73.242;2023-02-28T04:02:24;13.25;;;5.80;;
64060;SDS011;60147;55.036;73.242;2023-02-28T04:04:50;12.48;;;4.82;;
64060;SDS011;60147;55.036;73.242;2023-02-28T04:07:17;12.23;;;5.68;;
64060;SDS011;60147;55.036;73.242;2023-02-28T04:09:43;12.38;;;5.80;;
64060;SDS011;60147;55.036;73.242;2023-02-28T04:12:09;11.15;;;5.90;;
64060;SDS011;60147;55.036;73.242;2023-02-28T04:14:35;13.18;;;5.95;;
64060;SDS011;60147;55.036;73.242;2023-02-28T04:17:01;8.15;;;4.70;;
64060;SDS011;60147;55.036;73.242;2023-02-28T04:19:26;11.00;;;4.97;;
64060;SDS011;60147;55.036;73.242;2023-02-28T04:21:52;11.57;;;5.57;;
64060;SDS011;60147;55.036;73.242;2023-02-28T04:24:19;11.60;;;5.70;;
64060;SDS011;60147;55.036;73.242;2023-02-28T04:26:52;11.25;;;4.78;;
64060;SDS011;60147;55.036;73.242;2023-02-28T04:29:29;13.02;;;5.97;;
64060;SDS011;60147;55.036;73.242;2023-02-28T04:31:56;10.68;;;5.35;;
64060;SDS011;60147;55.036;73.242;2023-02-28T04:34:23;10.40;;;4.00;;
64060;SDS011;60147;55.036;73.242;2023-02-28T04:36:49;12.18;;;4.88;;
64060;SDS011;60147;55.036;73.242;2023-02-28T04:39:16;9.13;;;4.07;;
64060;SDS011;60147;55.036;73.242;2023-02-28T04:41:44;14.95;;;5.05;;
64060;SDS011;60147;55.036;73.242;2023-02-28T04:44:10;10.10;;;5.38;;
64060;SDS011;60147;55.036;73.242;2023-02-28T04:46:36;11.52;;;5.60;;
64060;SDS011;60147;55.036;73.242;2023-02-28T04:49:02;15.25;;;5.75;;
64060;SDS011;60147;55.036;73.242;2023-02-28T04:51:28;11.60;;;5.45;;
64060;SDS011;60147;55.036;73.242;2023-02-28T04:53:54;9.43;;;4.90;;
64060;SDS011;60147;55.036;73.242;2023-02-28T04:56:20;12.02;;;5.30;;
64060;SDS011;60147;55.036;73.242;2023-02-28T04:58:46;10.90;;;5.05;;
64060;SDS011;60147;55.036;73.242;2023-02-28T05:01:32;12.25;;;4.90;;
64060;SDS011;60147;55.036;73.242;2023-02-28T05:03:59;12.55;;;4.97;;
64060;SDS011;60147;55.036;73.242;2023-02-28T05:06:26;14.93;;;5.93;;
64060;SDS011;60147;55.036;73.242;2023-02-28T05:08:52;11.30;;;4.80;;
64060;SDS011;60147;55.036;73.242;2023-02-28T05:13:50;10.23;;;5.65;;
64060;SDS011;60147;55.036;73.242;2023-02-28T05:16:26;12.25;;;4.55;;
64060;SDS011;60147;55.036;73.242;2023-02-28T05:18:52;10.93;;;4.95;;
64060;SDS011;60147;55.036;73.242;2023-02-28T05:21:23;12.80;;;5.88;;
64060;SDS011;60147;55.036;73.242;2023-02-28T05:23:54;10.63;;;5.40;;
64060;SDS011;60147;55.036;73.242;2023-02-28T05:26:20;12.48;;;5.03;;
64060;SDS011;60147;55.036;73.242;2023-02-28T05:28:46;12.32;;;5.68;;
64060;SDS011;60147;55.036;73.242;2023-02-28T05:31:14;13.68;;;4.82;;
64060;SDS011;60147;55.036;73.242;2023-02-28T05:33:42;10.65;;;5.65;;
64060;SDS011;60147;55.036;73.242;2023-02-28T05:36:08;9.10;;;3.17;;
64060;SDS011;60147;55.036;73.242;2023-02-28T05:38:34;14.30;;;5.43;;
64060;SDS011;60147;55.036;73.242;2023-02-28T05:41:10;10.68;;;4.75;;
64060;SDS011;60147;55.036;73.242;2023-02-28T05:43:37;13.20;;;5.13;;
64060;SDS011;60147;55.036;73.242;2023-02-28T05:46:04;6.65;;;2.60;;
64060;SDS011;60147;55.036;73.242;2023-02-28T05:48:31;14.73;;;5.50;;
64060;SDS011;60147;55.036;73.242;2023-02-28T05:51:06;8.32;;;4.38;;
64060;SDS011;60147;55.036;73.242;2023-02-28T05:53:39;10.45;;;5.50;;
64060;SDS011;60147;55.036;73.242;2023-02-28T05:56:09;7.75;;;4.32;;
64060;SDS011;60147;55.036;73.242;2023-02-28T05:58:35;11.65;;;5.60;;
64060;SDS011;60147;55.036;73.242;2023-02-28T06:01:18;11.02;;;5.38;;
64060;SDS011;60147;55.036;73.242;2023-02-28T06:03:44;9.55;;;4.80;;
64060;SDS011;60147;55.036;73.242;2023-02-28T06:06:10;11.98;;;6.03;;
64060;SDS011;60147;55.036;73.242;2023-02-28T06:08:36;12.73;;;6.20;;
64060;SDS011;60147;55.036;73.242;2023-02-28T06:11:03;16.33;;;6.80;;
64060;SDS011;60147;55.036;73.242;2023-02-28T06:13:37;11.63;;;6.50;;
64060;SDS011;60147;55.036;73.242;2023-02-28T06:16:03;11.30;;;6.00;;
64060;SDS011;60147;55.036;73.242;2023-02-28T06:18:29;12.85;;;4.85;;
64060;SDS011;60147;55.036;73.242;2023-02-28T06:20:55;14.25;;;6.95;;
64060;SDS011;60147;55.036;73.242;2023-02-28T06:23:21;15.45;;;7.85;;
64060;SDS011;60147;55.036;73.242;2023-02-28T06:25:47;11.18;;;5.60;;
64060;SDS011;60147;55.036;73.242;2023-02-28T06:28:13;15.43;;;7.57;;
64060;SDS011;60147;55.036;73.242;2023-02-28T06:30:44;18.25;;;9.25;;
64060;SDS011;60147;55.036;73.242;2023-02-28T06:33:10;15.65;;;8.68;;
64060;SDS011;60147;55.036;73.242;2023-02-28T06:35:35;13.18;;;6.70;;
64060;SDS011;60147;55.036;73.242;2023-02-28T06:38:06;12.75;;;6.53;;
64060;SDS011;60147;55.036;73.242;2023-02-28T06:40:32;19.13;;;9.57;;
64060;SDS011;60147;55.036;73.242;2023-02-28T06:43:10;15.35;;;7.90;;
64060;SDS011;60147;55.036;73.242;2023-02-28T06:45:43;14.23;;;8.38;;
64060;SDS011;60147;55.036;73.242;2023-02-28T06:48:19;15.45;;;8.43;;
64060;SDS011;60147;55.036;73.242;2023-02-28T06:50:49;20.00;;;9.60;;
64060;SDS011;60147;55.036;73.242;2023-02-28T06:53:15;15.50;;;8.20;;
64060;SDS011;60147;55.036;73.242;2023-02-28T06:55:41;18.50;;;7.88;;
64060;SDS011;60147;55.036;73.242;2023-02-28T06:58:12;16.35;;;8.32;;
64060;SDS011;60147;55.036;73.242;2023-02-28T07:00:44;16.33;;;6.80;;
64060;SDS011;60147;55.036;73.242;2023-02-28T07:03:15;15.95;;;6.75;;
64060;SDS011;60147;55.036;73.242;2023-02-28T07:05:41;9.75;;;5.35;;
64060;SDS011;60147;55.036;73.242;2023-02-28T07:08:07;12.25;;;6.95;;
64060;SDS011;60147;55.036;73.242;2023-02-28T07:10:39;15.95;;;7.10;;
64060;SDS011;60147;55.036;73.242;2023-02-28T07:13:05;16.27;;;6.55;;
64060;SDS011;60147;55.036;73.242;2023-02-28T07:15:41;11.98;;;5.88;;
64060;SDS011;60147;55.036;73.242;2023-02-28T07:18:07;15.60;;;7.07;;
64060;SDS011;60147;55.036;73.242;2023-02-28T07:20:43;12.35;;;6.13;;
64060;SDS011;60147;55.036;73.242;2023-02-28T07:23:09;9.30;;;4.65;;
64060;SDS011;60147;55.036;73.242;2023-02-28T07:25:35;18.15;;;7.80;;
64060;SDS011;60147;55.036;73.242;2023-02-28T07:28:02;15.90;;;6.35;;
64060;SDS011;60147;55.036;73.242;2023-02-28T07:30:28;12.80;;;7.55;;
64060;SDS011;60147;55.036;73.242;2023-02-28T07:32:54;17.00;;;6.20;;
64060;SDS011;60147;55.036;73.242;2023-02-28T07:35:21;11.75;;;5.65;;
64060;SDS011;60147;55.036;73.242;2023-02-28T07:37:48;10.00;;;5.72;;
64060;SDS011;60147;55.036;73.242;2023-02-28T07:40:24;11.43;;;6.20;;
64060;SDS011;60147;55.036;73.242;2023-02-28T07:42:55;12.07;;;5.65;;
64060;SDS011;60147;55.036;73.242;2023-02-28T07:45:21;9.00;;;4.28;;
64060;SDS011;60147;55.036;73.242;2023-02-28T07:47:47;11.60;;;6.40;;
64060;SDS011;60147;55.036;73.242;2023-02-28T07:50:14;8.27;;;4.28;;
64060;SDS011;60147;55.036;73.242;2023-02-28T07:52:40;14.82;;;6.55;;
64060;SDS011;60147;55.036;73.242;2023-02-28T07:55:06;11.80;;;7.25;;
64060;SDS011;60147;55.036;73.242;2023-02-28T07:57:33;15.57;;;7.82;;
64060;SDS011;60147;55.036;73.242;2023-02-28T07:59:59;11.40;;;5.95;;
64060;SDS011;60147;55.036;73.242;2023-02-28T08:02:33;17.58;;;6.55;;
64060;SDS011;60147;55.036;73.242;2023-02-28T08:04:59;12.90;;;7.10;;
64060;SDS011;60147;55.036;73.242;2023-02-28T08:07:35;12.65;;;6.75;;
64060;SDS011;60147;55.036;73.242;2023-02-28T08:10:01;15.35;;;6.93;;
64060;SDS011;60147;55.036;73.242;2023-02-28T08:12:27;13.48;;;7.03;;
64060;SDS011;60147;55.036;73.242;2023-02-28T08:14:53;14.93;;;6.88;;
64060;SDS011;60147;55.036;73.242;2023-02-28T08:17:19;12.38;;;5.97;;
64060;SDS011;60147;55.036;73.242;2023-02-28T08:19:45;11.75;;;5.82;;
64060;SDS011;60147;55.036;73.242;2023-02-28T08:22:13;12.30;;;6.15;;
64060;SDS011;60147;55.036;73.242;2023-02-28T08:24:40;14.05;;;7.63;;
64060;SDS011;60147;55.036;73.242;2023-02-28T08:27:07;14.32;;;6.20;;
64060;SDS011;60147;55.036;73.242;2023-02-28T08:29:33;13.30;;;6.55;;
64060;SDS011;60147;55.036;73.242;2023-02-28T08:32:00;15.27;;;7.50;;
64060;SDS011;60147;55.036;73.242;2023-02-28T08:34:25;18.80;;;7.40;;
64060;SDS011;60147;55.036;73.242;2023-02-28T08:36:51;13.20;;;6.68;;
64060;SDS011;60147;55.036;73.242;2023-02-28T08:39:18;11.85;;;6.85;;
64060;SDS011;60147;55.036;73.242;2023-02-28T08:41:55;10.75;;;5.32;;
64060;SDS011;60147;55.036;73.242;2023-02-28T08:44:21;12.90;;;6.35;;
64060;SDS011;60147;55.036;73.242;2023-02-28T08:46:47;16.85;;;7.43;;
64060;SDS011;60147;55.036;73.242;2023-02-28T08:49:13;11.23;;;6.28;;
64060;SDS011;60147;55.036;73.242;2023-02-28T08:51:39;12.73;;;6.25;;
64060;SDS011;60147;55.036;73.242;2023-02-28T08:54:05;8.95;;;4.82;;
64060;SDS011;60147;55.036;73.242;2023-02-28T08:56:35;7.38;;;3.63;;
64060;SDS011;60147;55.036;73.242;2023-02-28T08:59:08;11.25;;;5.35;;
64060;SDS011;60147;55.036;73.242;2023-02-28T09:01:39;13.95;;;5.53;;
64060;SDS011;60147;55.036;73.242;2023-02-28T09:04:07;11.65;;;4.88;;
64060;SDS011;60147;55.036;73.242;2023-02-28T09:06:35;14.95;;;6.57;;
64060;SDS011;60147;55.036;73.242;2023-02-28T09:09:01;10.82;;;6.13;;
64060;SDS011;60147;55.036;73.242;2023-02-28T09:11:37;13.05;;;6.13;;
64060;SDS011;60147;55.036;73.242;2023-02-28T09:14:08;13.23;;;6.35;;
64060;SDS011;60147;55.036;73.242;2023-02-28T09:16:34;13.30;;;5.95;;
64060;SDS011;60147;55.036;73.242;2023-02-28T09:19:00;9.57;;;5.22;;
64060;SDS011;60147;55.036;73.242;2023-02-28T09:21:29;10.77;;;5.25;;
64060;SDS011;60147;55.036;73.242;2023-02-28T09:24:04;13.60;;;6.10;;
64060;SDS011;60147;55.036;73.242;2023-02-28T09:26:30;11.13;;;5.00;;
64060;SDS011;60147;55.036;73.242;2023-02-28T09:28:56;13.50;;;5.72;;
64060;SDS011;60147;55.036;73.242;2023-02-28T09:31:34;13.65;;;6.35;;
64060;SDS011;60147;55.036;73.242;2023-02-28T09:34:00;12.90;;;5.82;;
64060;SDS011;60147;55.036;73.242;2023-02-28T09:36:27;17.60;;;6.88;;
64060;SDS011;60147;55.036;73.242;2023-02-28T09:38:54;11.15;;;5.65;;
64060;SDS011;60147;55.036;73.242;2023-02-28T09:41:24;12.02;;;6.25;;
64060;SDS011;60147;55.036;73.242;2023-02-28T09:43:56;15.43;;;6.80;;
64060;SDS011;60147;55.036;73.242;2023-02-28T09:46:40;14.38;;;6.97;;
64060;SDS011;60147;55.036;73.242;2023-02-28T09:49:25;10.65;;;5.90;;
64060;SDS011;60147;55.036;73.242;2023-02-28T09:51:55;12.05;;;6.75;;
64060;SDS011;60147;55.036;73.242;2023-02-28T09:54:35;17.67;;;6.32;;
64060;SDS011;60147;55.036;73.242;2023-02-28T10:04:36;15.65;;;7.28;;
64060;SDS011;60147;55.036;73.242;2023-02-28T10:10:09;16.20;;;6.90;;
64060;SDS011;60147;55.036;73.242;2023-02-28T10:12:41;15.30;;;7.40;;
64060;SDS011;60147;55.036;73.242;2023-02-28T10:15:13;14.25;;;6.55;;
64060;SDS011;60147;55.036;73.242;2023-02-28T10:17:40;14.90;;;6.03;;
64060;SDS011;60147;55.036;73.242;2023-02-28T10:20:11;16.33;;;6.88;;
64060;SDS011;60147;55.036;73.242;2023-02-28T10:25:29;17.20;;;7.03;;
64060;SDS011;60147;55.036;73.242;2023-02-28T10:28:00;14.93;;;6.85;;
64060;SDS011;60147;55.036;73.242;2023-02-28T10:30:36;13.40;;;6.15;;
64060;SDS011;60147;55.036;73.242;2023-02-28T10:33:03;12.43;;;6.88;;
64060;SDS011;60147;55.036;73.242;2023-02-28T10:35:39;16.33;;;7.03;;
64060;SDS011;60147;55.036;73.242;2023-02-28T10:38:08;12.38;;;7.18;;
64060;SDS011;60147;55.036;73.242;2023-02-28T10:40:40;14.65;;;6.80;;
64060;SDS011;60147;55.036;73.242;2023-02-28T10:50:50;10.50;;;6.32;;
64060;SDS011;60147;55.036;73.242;2023-02-28T10:53:22;12.73;;;6.60;;
64060;SDS011;60147;55.036;73.242;2023-02-28T10:55:57;15.43;;;5.68;;
64060;SDS011;60147;55.036;73.242;2023-02-28T10:58:26;16.85;;;7.47;;
64060;SDS011;60147;55.036;73.242;2023-02-28T11:00:52;13.88;;;7.50;;
64060;SDS011;60147;55.036;73.242;2023-02-28T11:03:34;13.82;;;6.95;;
64060;SDS011;60147;55.036;73.242;2023-02-28T11:06:15;17.65;;;7.80;;
64060;SDS011;60147;55.036;73.242;2023-02-28T11:08:58;12.68;;;7.05;;
64060;SDS011;60147;55.036;73.242;2023-02-28T11:11:30;15.60;;;6.85;;
64060;SDS011;60147;55.036;73.242;2023-02-28T11:14:27;10.68;;;6.57;;
64060;SDS011;60147;55.036;73.242;2023-02-28T11:17:22;12.57;;;6.50;;
64060;SDS011;60147;55.036;73.242;2023-02-28T11:19:55;14.43;;;6.03;;
64060;SDS011;60147;55.036;73.242;2023-02-28T11:22:37;11.35;;;6.60;;
64060;SDS011;60147;55.036;73.242;2023-02-28T11:25:09;12.65;;;6.20;;
64060;SDS011;60147;55.036;73.242;2023-02-28T11:27:46;14.90;;;7.50;;
64060;SDS011;60147;55.036;73.242;2023-02-28T11:32:51;13.30;;;6.40;;
64060;SDS011;60147;55.036;73.242;2023-02-28T11:35:21;47.22;;;17.60;;
64060;SDS011;60147;55.036;73.242;2023-02-28T11:37:49;17.60;;;9.85;;
64060;SDS011;60147;55.036;73.242;2023-02-28T11:40:17;19.15;;;10.93;;
64060;SDS011;60147;55.036;73.242;2023-02-28T11:48:04;24.58;;;9.95;;
64060;SDS011;60147;55.036;73.242;2023-02-28T11:50:44;14.65;;;8.00;;
64060;SDS011;60147;55.036;73.242;2023-02-28T11:56:37;14.40;;;7.88;;
64060;SDS011;60147;55.036;73.242;2023-02-28T12:04:21;16.35;;;7.50;;
64060;SDS011;60147;55.036;73.242;2023-02-28T12:07:03;12.95;;;5.78;;
64060;SDS011;60147;55.036;73.242;2023-02-28T12:18:10;13.23;;;7.00;;
64060;SDS011;60147;55.036;73.242;2023-02-28T12:28:49;20.27;;;10.13;;
64060;SDS011;60147;55.036;73.242;2023-02-28T12:31:26;14.52;;;7.90;;
64060;SDS011;60147;55.036;73.242;2023-02-28T12:33:56;13.75;;;7.22;;
64060;SDS011;60147;55.036;73.242;2023-02-28T12:36:24;10.52;;;5.70;;
64060;SDS011;60147;55.036;73.242;2023-02-28T12:41:46;14.73;;;6.15;;
64060;SDS011;60147;55.036;73.242;2023-02-28T12:44:15;10.63;;;6.20;;
64060;SDS011;60147;55.036;73.242;2023-02-28T12:46:51;14.40;;;6.40;;
64060;SDS011;60147;55.036;73.242;2023-02-28T12:49:30;12.40;;;7.25;;
64060;SDS011;60147;55.036;73.242;2023-02-28T12:52:04;11.45;;;6.78;;
64060;SDS011;60147;55.036;73.242;2023-02-28T12:59:55;13.25;;;6.50;;
64060;SDS011;60147;55.036;73.242;2023-02-28T13:10:06;12.77;;;6.57;;
64060;SDS011;60147;55.036;73.242;2023-02-28T13:12:33;16.92;;;7.97;;
64060;SDS011;60147;55.036;73.242;2023-02-28T13:15:08;13.15;;;7.63;;
64060;SDS011;60147;55.036;73.242;2023-02-28T13:17:38;15.52;;;8.32;;
64060;SDS011;60147;55.036;73.242;2023-02-28T13:20:14;15.48;;;7.72;;
64060;SDS011;60147;55.036;73.242;2023-02-28T13:22:51;13.02;;;7.40;;
64060;SDS011;60147;55.036;73.242;2023-02-28T13:27:47;17.58;;;9.20;;
64060;SDS011;60147;55.036;73.242;2023-02-28T13:33:21;17.58;;;8.57;;
64060;SDS011;60147;55.036;73.242;2023-02-28T13:35:48;21.75;;;10.35;;
64060;SDS011;60147;55.036;73.242;2023-02-28T13:38:31;26.52;;;10.55;;
64060;SDS011;60147;55.036;73.242;2023-02-28T13:43:59;20.35;;;9.45;;
64060;SDS011;60147;55.036;73.242;2023-02-28T13:46:35;15.65;;;8.30;;
64060;SDS011;60147;55.036;73.242;2023-02-28T14:05:35;29.40;;;12.10;;
64060;SDS011;60147;55.036;73.242;2023-02-28T14:08:06;23.80;;;9.50;;
64060;SDS011;60147;55.036;73.242;2023-02-28T14:10:36;12.82;;;7.10;;
64060;SDS011;60147;55.036;73.242;2023-02-28T14:13:10;12.93;;;7.20;;
64060;SDS011;60147;55.036;73.242;2023-02-28T14:15:47;11.32;;;6.28;;
64060;SDS011;60147;55.036;73.242;2023-02-28T14:18:21;11.43;;;6.70;;
64060;SDS011;60147;55.036;73.242;2023-02-28T14:20:54;14.63;;;6.90;;
64060;SDS011;60147;55.036;73.242;2023-02-28T14:31:12;16.17;;;7.60;;
64060;SDS011;60147;55.036;73.242;2023-02-28T14:33:44;12.13;;;6.72;;
64060;SDS011;60147;55.036;73.242;2023-02-28T14:36:14;13.85;;;7.43;;
64060;SDS011;60147;55.036;73.242;2023-02-28T14:38:46;18.35;;;8.90;;
64060;SDS011;60147;55.036;73.242;2023-02-28T14:41:21;13.30;;;6.75;;
64060;SDS011;60147;55.036;73.242;2023-02-28T14:43:49;15.10;;;8.18;;
64060;SDS011;60147;55.036;73.242;2023-02-28T14:46:45;15.77;;;8.55;;
64060;SDS011;60147;55.036;73.242;2023-02-28T14:49:16;15.63;;;8.55;;
64060;SDS011;60147;55.036;73.242;2023-02-28T14:51:42;15.85;;;8.10;;
64060;SDS011;60147;55.036;73.242;2023-02-28T14:54:12;13.50;;;6.90;;
64060;SDS011;60147;55.036;73.242;2023-02-28T14:56:43;10.60;;;6.55;;
64060;SDS011;60147;55.036;73.242;2023-02-28T14:59:29;15.48;;;7.13;;
64060;SDS011;60147;55.036;73.242;2023-02-28T15:02:17;18.73;;;6.90;;
64060;SDS011;60147;55.036;73.242;2023-02-28T15:04:52;15.85;;;7.15;;
64060;SDS011;60147;55.036;73.242;2023-02-28T15:07:19;15.43;;;7.40;;
64060;SDS011;60147;55.036;73.242;2023-02-28T15:09:44;14.23;;;6.85;;
64060;SDS011;60147;55.036;73.242;2023-02-28T15:12:13;14.95;;;6.82;;
64060;SDS011;60147;55.036;73.242;2023-02-28T15:14:42;11.57;;;6.93;;
64060;SDS011;60147;55.036;73.242;2023-02-28T15:17:11;15.57;;;7.00;;
64060;SDS011;60147;55.036;73.242;2023-02-28T15:19:45;10.45;;;6.30;;
64060;SDS011;60147;55.036;73.242;2023-02-28T15:22:25;12.63;;;6.65;;
64060;SDS011;60147;55.036;73.242;2023-02-28T15:24:54;17.10;;;7.80;;
64060;SDS011;60147;55.036;73.242;2023-02-28T15:27:29;14.65;;;7.35;;
64060;SDS011;60147;55.036;73.242;2023-02-28T15:29:58;12.18;;;6.28;;
64060;SDS011;60147;55.036;73.242;2023-02-28T15:34:56;16.33;;;8.57;;
64060;SDS011;60147;55.036;73.242;2023-02-28T15:37:26;15.30;;;7.38;;
64060;SDS011;60147;55.036;73.242;2023-02-28T15:39:54;13.05;;;7.55;;
64060;SDS011;60147;55.036;73.242;2023-02-28T15:42:21;15.48;;;8.30;;
64060;SDS011;60147;55.036;73.242;2023-02-28T15:44:47;11.77;;;6.78;;
64060;SDS011;60147;55.036;73.242;2023-02-28T15:49:47;13.75;;;7.60;;
64060;SDS011;60147;55.036;73.242;2023-02-28T15:52:15;16.63;;;9.43;;
64060;SDS011;60147;55.036;73.242;2023-02-28T15:54:42;20.20;;;11.55;;
64060;SDS011;60147;55.036;73.242;2023-02-28T15:57:23;16.58;;;8.75;;
64060;SDS011;60147;55.036;73.242;2023-02-28T15:59:51;12.65;;;7.03;;
64060;SDS011;60147;55.036;73.242;2023-02-28T16:02:19;14.82;;;7.65;;
64060;SDS011;60147;55.036;73.242;2023-02-28T16:04:56;15.90;;;8.48;;
64060;SDS011;60147;55.036;73.242;2023-02-28T16:07:22;15.52;;;8.70;;
64060;SDS011;60147;55.036;73.242;2023-02-28T16:09:59;14.40;;;7.30;;
64060;SDS011;60147;55.036;73.242;2023-02-28T16:12:35;17.33;;;7.75;;
64060;SDS011;60147;55.036;73.242;2023-02-28T16:15:03;17.60;;;8.00;;
64060;SDS011;60147;55.036;73.242;2023-02-28T16:17:42;15.38;;;7.55;;
64060;SDS011;60147;55.036;73.242;2023-02-28T16:20:17;11.50;;;6.18;;
64060;SDS011;60147;55.036;73.242;2023-02-28T16:22:53;12.80;;;7.72;;
64060;SDS011;60147;55.036;73.242;2023-02-28T16:25:20;12.80;;;7.15;;
64060;SDS011;60147;55.036;73.242;2023-02-28T16:27:48;15.23;;;7.63;;
64060;SDS011;60147;55.036;73.242;2023-02-28T16:30:17;14.80;;;7.85;;
64060;SDS011;60147;55.036;73.242;2023-02-28T16:32:44;12.93;;;7.22;;
64060;SDS011;60147;55.036;73.242;2023-02-28T16:35:10;11.98;;;7.20;;
64060;SDS011;60147;55.036;73.242;2023-02-28T16:37:36;11.27;;;6.00;;
64060;SDS011;60147;55.036;73.242;2023-02-28T16:40:14;12.82;;;7.82;;
64060;SDS011;60147;55.036;73.242;2023-02-28T16:42:51;12.55;;;6.80;;
64060;SDS011;60147;55.036;73.242;2023-02-28T16:45:18;16.83;;;7.80;;
64060;SDS011;60147;55.036;73.242;2023-02-28T16:47:45;13.48;;;7.60;;
64060;SDS011;60147;55.036;73.242;2023-02-28T16:50:22;15.85;;;8.10;;
64060;SDS011;60147;55.036;73.242;2023-02-28T16:52:48;14.70;;;7.20;;
64060;SDS011;60147;55.036;73.242;2023-02-28T16:55:15;13.43;;;7.07;;
64060;SDS011;60147;55.036;73.242;2023-02-28T16:57:41;13.90;;;7.40;;
64060;SDS011;60147;55.036;73.242;2023-02-28T17:00:11;18.30;;;8.88;;
64060;SDS011;60147;55.036;73.242;2023-02-28T17:02:37;16.45;;;8.60;;
64060;SDS011;60147;55.036;73.242;2023-02-28T17:05:11;19.70;;;8.75;;
64060;SDS011;60147;55.036;73.242;2023-02-28T17:07:42;19.10;;;9.68;;